sensor_id;sensor_type;location;lat;lon;timestamp;pressure;altitude;pressure_sealevel;temperature;humidity
34124;BME280;13153;52.316;21.166;2023-06-10T00:02:08;100359.03;;;24.59;39.08
34124;BME280;13153;52.316;21.166;2023-06-10T00:04:34;100364.56;;;24.54;39.20
34124;BME280;13153;52.316;21.166;2023-06-10T00:07:03;100360.06;;;24.55;39.28
34124;BME280;13153;52.316;21.166;2023-06-10T00:09:29;100376.13;;;24.58;39.02
34124;BME280;13153;52.316;21.166;2023-06-10T00:11:55;100367.16;;;24.57;39.11
34124;BME280;13153;52.316;21.166;2023-06-10T00:14:21;100372.53;;;24.57;38.28
34124;BME280;13153;52.316;21.166;2023-06-10T00:16:47;100369.06;;;24.54;38.73
34124;BME280;13153;52.316;21.166;2023-06-10T00:19:12;100365.63;;;24.49;37.74
34124;BME280;13153;52.316;21.166;2023-06-10T00:21:41;100367.53;;;24.45;38.04
34124;BME280;13153;52.316;21.166;2023-06-10T00:24:08;100361.28;;;24.45;37.86
34124;BME280;13153;52.316;21.166;2023-06-10T00:26:38;100366.59;;;24.46;37.89
34124;BME280;13153;52.316;21.166;2023-06-10T00:29:05;100359.41;;;24.47;37.98
34124;BME280;13153;52.316;21.166;2023-06-10T00:31:30;100363.13;;;24.43;36.93
34124;BME280;13153;52.316;21.166;2023-06-10T00:33:56;100356.13;;;24.37;36.75
34124;BME280;13153;52.316;21.166;2023-06-10T00:36:24;100355.44;;;24.30;36.58
34124;BME280;13153;52.316;21.166;2023-06-10T00:38:50;100365.59;;;24.21;36.12
34124;BME280;13153;52.316;21.166;2023-06-10T00:41:15;100371.03;;;24.18;36.74
34124;BME280;13153;52.316;21.166;2023-06-10T00:43:41;100360.44;;;24.13;36.83
34124;BME280;13153;52.316;21.166;2023-06-10T00:46:07;100367.78;;;24.07;37.26
34124;BME280;13153;52.316;21.166;2023-06-10T00:48:33;100368.75;;;24.04;37.56
34124;BME280;13153;52.316;21.166;2023-06-10T00:51:00;100367.88;;;24.03;37.18
34124;BME280;13153;52.316;21.166;2023-06-10T00:53:27;100367.91;;;24.02;37.57
34124;BME280;13153;52.316;21.166;2023-06-10T00:55:53;100372.59;;;23.95;36.92
34124;BME280;13153;52.316;21.166;2023-06-10T00:58:19;100373.72;;;23.87;36.55
34124;BME280;13153;52.316;21.166;2023-06-10T01:00:45;100372.06;;;23.83;36.68
34124;BME280;13153;52.316;21.166;2023-06-10T01:03:12;100376.59;;;23.81;36.65
34124;BME280;13153;52.316;21.166;2023-06-10T01:05:39;100375.81;;;23.76;36.85
34124;BME280;13153;52.316;21.166;2023-06-10T01:08:28;100367.84;;;23.73;36.46
34124;BME280;13153;52.316;21.166;2023-06-10T01:11:00;100370.75;;;23.66;36.93
34124;BME280;13153;52.316;21.166;2023-06-10T01:13:29;100369.91;;;23.64;36.67
34124;BME280;13153;52.316;21.166;2023-06-10T01:15:56;100374.47;;;23.61;36.83
34124;BME280;13153;52.316;21.166;2023-06-10T01:18:22;100372.78;;;23.57;36.42
34124;BME280;13153;52.316;21.166;2023-06-10T01:20:49;100379.25;;;23.48;36.62
34124;BME280;13153;52.316;21.166;2023-06-10T01:23:15;100373.19;;;23.40;37.17
34124;BME280;13153;52.316;21.166;2023-06-10T01:25:59;100363.53;;;23.33;36.96
34124;BME280;13153;52.316;21.166;2023-06-10T01:28:40;100374.47;;;23.25;37.58
34124;BME280;13153;52.316;21.166;2023-06-10T01:31:38;100367.50;;;23.18;37.46
34124;BME280;13153;52.316;21.166;2023-06-10T01:34:14;100374.94;;;23.09;37.97
34124;BME280;13153;52.316;21.166;2023-06-10T01:36:47;100376.03;;;23.00;38.34
34124;BME280;13153;52.316;21.166;2023-06-10T01:39:15;100379.72;;;22.96;38.95
34124;BME280;13153;52.316;21.166;2023-06-10T01:41:43;100377.13;;;22.91;39.10
34124;BME280;13153;52.316;21.166;2023-06-10T01:44:10;100387.91;;;22.90;38.85
34124;BME280;13153;52.316;21.166;2023-06-10T01:46:36;100381.84;;;22.82;39.32
34124;BME280;13153;52.316;21.166;2023-06-10T01:49:02;100380.25;;;22.71;39.09
34124;BME280;13153;52.316;21.166;2023-06-10T01:51:28;100380.25;;;22.71;39.35
34124;BME280;13153;52.316;21.166;2023-06-10T01:53:53;100385.81;;;22.62;39.40
34124;BME280;13153;52.316;21.166;2023-06-10T01:56:19;100385.13;;;22.54;39.18
34124;BME280;13153;52.316;21.166;2023-06-10T01:58:48;100384.22;;;22.54;40.34
34124;BME280;13153;52.316;21.166;2023-06-10T02:01:14;100394.88;;;22.57;39.63
34124;BME280;13153;52.316;21.166;2023-06-10T02:03:40;100394.03;;;22.55;40.06
34124;BME280;13153;52.316;21.166;2023-06-10T02:06:06;100397.97;;;22.40;40.58
34124;BME280;13153;52.316;21.166;2023-06-10T02:08:32;100391.88;;;22.32;40.43
34124;BME280;13153;52.316;21.166;2023-06-10T02:10:57;100395.38;;;22.35;40.77
34124;BME280;13153;52.316;21.166;2023-06-10T02:13:23;100398.88;;;22.39;40.85
34124;BME280;13153;52.316;21.166;2023-06-10T02:15:49;100396.31;;;22.34;40.88
34124;BME280;13153;52.316;21.166;2023-06-10T02:18:15;100399.06;;;22.31;40.87
34124;BME280;13153;52.316;21.166;2023-06-10T02:20:41;100395.44;;;22.32;41.64
34124;BME280;13153;52.316;21.166;2023-06-10T02:23:06;100402.75;;;22.26;41.60
34124;BME280;13153;52.316;21.166;2023-06-10T02:25:32;100404.69;;;22.18;41.48
34124;BME280;13153;52.316;21.166;2023-06-10T02:27:58;100409.16;;;22.17;41.92
34124;BME280;13153;52.316;21.166;2023-06-10T02:30:24;100404.84;;;22.10;42.20
34124;BME280;13153;52.316;21.166;2023-06-10T02:32:49;100408.28;;;22.17;42.38
34124;BME280;13153;52.316;21.166;2023-06-10T02:35:17;100403.88;;;22.14;41.96
34124;BME280;13153;52.316;21.166;2023-06-10T02:37:43;100411.97;;;22.11;42.05
34124;BME280;13153;52.316;21.166;2023-06-10T02:40:10;100407.41;;;22.16;42.45
34124;BME280;13153;52.316;21.166;2023-06-10T02:42:36;100414.41;;;22.23;42.92
34124;BME280;13153;52.316;21.166;2023-06-10T02:45:03;100420.84;;;22.15;42.69
34124;BME280;13153;52.316;21.166;2023-06-10T02:47:29;100424.59;;;22.06;42.12
34124;BME280;13153;52.316;21.166;2023-06-10T02:49:55;100415.28;;;22.24;42.67
34124;BME280;13153;52.316;21.166;2023-06-10T02:52:21;100423.19;;;22.31;42.32
34124;BME280;13153;52.316;21.166;2023-06-10T02:54:46;100420.19;;;22.47;42.52
34124;BME280;13153;52.316;21.166;2023-06-10T02:57:12;100426.16;;;22.58;42.37
34124;BME280;13153;52.316;21.166;2023-06-10T02:59:40;100425.25;;;22.59;42.24
34124;BME280;13153;52.316;21.166;2023-06-10T03:02:06;100431.28;;;22.68;41.86
34124;BME280;13153;52.316;21.166;2023-06-10T03:04:33;100427.44;;;22.82;41.72
34124;BME280;13153;52.316;21.166;2023-06-10T03:06:58;100429.81;;;22.95;41.33
34124;BME280;13153;52.316;21.166;2023-06-10T03:09:26;100434.81;;;23.11;40.91
34124;BME280;13153;52.316;21.166;2023-06-10T03:11:51;100422.53;;;23.00;40.71
34124;BME280;13153;52.316;21.166;2023-06-10T03:14:17;100422.72;;;22.93;40.46
34124;BME280;13153;52.316;21.166;2023-06-10T03:16:43;100428.63;;;23.09;40.52
34124;BME280;13153;52.316;21.166;2023-06-10T03:19:09;100431.69;;;23.27;40.14
34124;BME280;13153;52.316;21.166;2023-06-10T03:21:35;100434.16;;;23.36;39.64
34124;BME280;13153;52.316;21.166;2023-06-10T03:24:03;100439.53;;;23.72;39.47
34124;BME280;13153;52.316;21.166;2023-06-10T03:26:29;100434.69;;;23.85;39.03
34124;BME280;13153;52.316;21.166;2023-06-10T03:28:55;100449.50;;;24.01;39.12
34124;BME280;13153;52.316;21.166;2023-06-10T03:31:21;100447.22;;;24.18;38.62
34124;BME280;13153;52.316;21.166;2023-06-10T03:33:47;100449.06;;;24.47;37.99
34124;BME280;13153;52.316;21.166;2023-06-10T03:36:13;100448.91;;;24.83;37.75
34124;BME280;13153;52.316;21.166;2023-06-10T03:38:38;100447.34;;;25.04;37.25
34124;BME280;13153;52.316;21.166;2023-06-10T03:41:04;100446.03;;;25.17;36.76
34124;BME280;13153;52.316;21.166;2023-06-10T03:43:30;100449.66;;;25.16;37.06
34124;BME280;13153;52.316;21.166;2023-06-10T03:45:56;100455.69;;;24.94;36.74
34124;BME280;13153;52.316;21.166;2023-06-10T03:48:22;100456.41;;;25.01;37.38
34124;BME280;13153;52.316;21.166;2023-06-10T03:50:48;100452.44;;;25.13;37.06
34124;BME280;13153;52.316;21.166;2023-06-10T03:53:16;100456.09;;;25.38;36.68
34124;BME280;13153;52.316;21.166;2023-06-10T03:55:42;100458.75;;;25.92;36.02
34124;BME280;13153;52.316;21.166;2023-06-10T03:58:08;100457.63;;;26.23;35.62
34124;BME280;13153;52.316;21.166;2023-06-10T04:00:34;100462.44;;;26.40;35.06
34124;BME280;13153;52.316;21.166;2023-06-10T04:03:08;100474.28;;;26.36;34.79
34124;BME280;13153;52.316;21.166;2023-06-10T04:05:35;100469.34;;;26.70;34.46
34124;BME280;13153;52.316;21.166;2023-06-10T04:08:01;100462.78;;;27.01;33.95
34124;BME280;13153;52.316;21.166;2023-06-10T04:10:27;100470.25;;;27.38;33.44
34124;BME280;13153;52.316;21.166;2023-06-10T04:12:53;100467.84;;;28.14;32.70
34124;BME280;13153;52.316;21.166;2023-06-10T04:15:19;100468.81;;;29.10;31.10
34124;BME280;13153;52.316;21.166;2023-06-10T04:17:45;100468.47;;;29.71;29.79
34124;BME280;13153;52.316;21.166;2023-06-10T04:20:11;100478.56;;;30.04;29.72
34124;BME280;13153;52.316;21.166;2023-06-10T04:22:37;100475.75;;;30.55;28.58
34124;BME280;13153;52.316;21.166;2023-06-10T04:25:02;100475.00;;;31.18;27.98
34124;BME280;13153;52.316;21.166;2023-06-10T04:27:29;100483.38;;;31.76;27.04
34124;BME280;13153;52.316;21.166;2023-06-10T04:29:56;100484.19;;;32.23;26.48
34124;BME280;13153;52.316;21.166;2023-06-10T04:32:21;100482.47;;;32.93;25.61
34124;BME280;13153;52.316;21.166;2023-06-10T04:34:47;100485.22;;;33.34;25.08
34124;BME280;13153;52.316;21.166;2023-06-10T04:37:13;100487.28;;;33.57;24.86
34124;BME280;13153;52.316;21.166;2023-06-10T04:39:38;100492.84;;;34.35;24.39
34124;BME280;13153;52.316;21.166;2023-06-10T04:42:04;100492.59;;;35.01;23.25
34124;BME280;13153;52.316;21.166;2023-06-10T04:44:31;100496.84;;;35.79;22.24
34124;BME280;13153;52.316;21.166;2023-06-10T04:46:56;100492.50;;;35.87;22.41
34124;BME280;13153;52.316;21.166;2023-06-10T04:49:22;100504.78;;;36.52;21.83
34124;BME280;13153;52.316;21.166;2023-06-10T04:51:48;100504.44;;;37.01;20.76
34124;BME280;13153;52.316;21.166;2023-06-10T04:54:14;100505.19;;;37.03;20.78
34124;BME280;13153;52.316;21.166;2023-06-10T04:56:40;100507.91;;;36.58;21.09
34124;BME280;13153;52.316;21.166;2023-06-10T04:59:05;100498.09;;;36.89;21.22
34124;BME280;13153;52.316;21.166;2023-06-10T05:01:31;100504.91;;;37.17;21.07
34124;BME280;13153;52.316;21.166;2023-06-10T05:03:57;100506.16;;;37.35;20.58
34124;BME280;13153;52.316;21.166;2023-06-10T05:06:22;100514.50;;;36.67;21.26
34124;BME280;13153;52.316;21.166;2023-06-10T05:08:48;100503.44;;;35.27;22.43
34124;BME280;13153;52.316;21.166;2023-06-10T05:11:14;100514.19;;;34.55;23.97
34124;BME280;13153;52.316;21.166;2023-06-10T05:13:42;100513.97;;;33.93;23.84
34124;BME280;13153;52.316;21.166;2023-06-10T05:16:08;100515.03;;;33.37;25.48
34124;BME280;13153;52.316;21.166;2023-06-10T05:18:34;100516.97;;;33.49;25.60
34124;BME280;13153;52.316;21.166;2023-06-10T05:21:01;100516.38;;;33.98;25.55
34124;BME280;13153;52.316;21.166;2023-06-10T05:23:28;100523.69;;;33.43;25.02
34124;BME280;13153;52.316;21.166;2023-06-10T05:25:54;100520.13;;;32.13;26.17
34124;BME280;13153;52.316;21.166;2023-06-10T05:28:19;100522.66;;;32.16;26.85
34124;BME280;13153;52.316;21.166;2023-06-10T05:30:46;100514.94;;;32.25;26.33
34124;BME280;13153;52.316;21.166;2023-06-10T05:33:11;100517.09;;;32.34;26.41
34124;BME280;13153;52.316;21.166;2023-06-10T05:35:37;100523.56;;;32.75;26.31
34124;BME280;13153;52.316;21.166;2023-06-10T05:38:03;100521.38;;;33.37;25.35
34124;BME280;13153;52.316;21.166;2023-06-10T05:40:29;100521.28;;;33.39;24.61
34124;BME280;13153;52.316;21.166;2023-06-10T05:42:55;100520.34;;;32.83;25.59
34124;BME280;13153;52.316;21.166;2023-06-10T05:45:20;100520.78;;;32.33;26.87
34124;BME280;13153;52.316;21.166;2023-06-10T05:47:46;100520.31;;;32.10;26.56
34124;BME280;13153;52.316;21.166;2023-06-10T05:50:12;100520.97;;;32.30;26.50
34124;BME280;13153;52.316;21.166;2023-06-10T05:52:38;100518.13;;;32.75;26.48
34124;BME280;13153;52.316;21.166;2023-06-10T05:55:06;100531.47;;;33.50;25.39
34124;BME280;13153;52.316;21.166;2023-06-10T05:57:32;100519.16;;;33.30;24.96
34124;BME280;13153;52.316;21.166;2023-06-10T05:59:58;100528.19;;;32.59;25.85
34124;BME280;13153;52.316;21.166;2023-06-10T06:02:24;100529.34;;;31.81;27.06
34124;BME280;13153;52.316;21.166;2023-06-10T06:04:50;100516.03;;;31.45;27.56
34124;BME280;13153;52.316;21.166;2023-06-10T06:07:16;100509.97;;;31.24;28.13
34124;BME280;13153;52.316;21.166;2023-06-10T06:09:42;100514.09;;;31.63;27.70
34124;BME280;13153;52.316;21.166;2023-06-10T06:12:08;100520.38;;;32.39;26.47
34124;BME280;13153;52.316;21.166;2023-06-10T06:14:38;100516.53;;;33.28;26.16
34124;BME280;13153;52.316;21.166;2023-06-10T06:17:06;100534.50;;;34.76;24.39
34124;BME280;13153;52.316;21.166;2023-06-10T06:19:32;100526.44;;;36.09;23.52
34124;BME280;13153;52.316;21.166;2023-06-10T06:21:57;100535.34;;;36.69;22.14
34124;BME280;13153;52.316;21.166;2023-06-10T06:24:23;100530.56;;;36.49;22.21
34124;BME280;13153;52.316;21.166;2023-06-10T06:26:49;100527.47;;;36.65;22.32
34124;BME280;13153;52.316;21.166;2023-06-10T06:29:15;100542.44;;;36.61;21.57
34124;BME280;13153;52.316;21.166;2023-06-10T06:31:41;100536.84;;;35.68;22.56
34124;BME280;13153;52.316;21.166;2023-06-10T06:34:06;100529.66;;;35.18;22.95
34124;BME280;13153;52.316;21.166;2023-06-10T06:36:32;100526.97;;;34.93;23.98
34124;BME280;13153;52.316;21.166;2023-06-10T06:38:58;100527.72;;;35.44;23.61
34124;BME280;13153;52.316;21.166;2023-06-10T06:41:26;100537.19;;;35.88;22.91
34124;BME280;13153;52.316;21.166;2023-06-10T06:43:57;100536.19;;;36.13;22.33
34124;BME280;13153;52.316;21.166;2023-06-10T06:46:22;100533.69;;;35.86;22.16
34124;BME280;13153;52.316;21.166;2023-06-10T06:48:48;100533.94;;;35.83;22.91
34124;BME280;13153;52.316;21.166;2023-06-10T06:51:14;100536.19;;;36.13;22.96
34124;BME280;13153;52.316;21.166;2023-06-10T06:53:40;100533.91;;;36.30;22.39
34124;BME280;13153;52.316;21.166;2023-06-10T06:56:12;100537.34;;;36.21;22.94
34124;BME280;13153;52.316;21.166;2023-06-10T06:58:38;100541.44;;;36.16;23.28
34124;BME280;13153;52.316;21.166;2023-06-10T07:01:04;100537.56;;;36.18;23.13
34124;BME280;13153;52.316;21.166;2023-06-10T07:03:29;100545.13;;;35.06;23.06
34124;BME280;13153;52.316;21.166;2023-06-10T07:05:55;100542.50;;;34.54;24.77
34124;BME280;13153;52.316;21.166;2023-06-10T07:08:21;100542.06;;;34.86;24.17
34124;BME280;13153;52.316;21.166;2023-06-10T07:10:47;100550.69;;;35.54;23.83
34124;BME280;13153;52.316;21.166;2023-06-10T07:13:12;100547.03;;;36.38;23.37
34124;BME280;13153;52.316;21.166;2023-06-10T07:15:39;100549.47;;;37.10;22.31
34124;BME280;13153;52.316;21.166;2023-06-10T07:18:04;100541.56;;;38.04;21.49
34124;BME280;13153;52.316;21.166;2023-06-10T07:20:30;100547.66;;;38.91;20.35
34124;BME280;13153;52.316;21.166;2023-06-10T07:22:56;100541.97;;;39.04;19.52
34124;BME280;13153;52.316;21.166;2023-06-10T07:25:22;100548.44;;;39.43;19.47
34124;BME280;13153;52.316;21.166;2023-06-10T07:27:48;100546.38;;;39.75;19.53
34124;BME280;13153;52.316;21.166;2023-06-10T07:30:13;100550.03;;;39.95;19.04
34124;BME280;13153;52.316;21.166;2023-06-10T07:32:39;100545.50;;;39.75;19.47
34124;BME280;13153;52.316;21.166;2023-06-10T07:35:08;100553.50;;;38.77;20.49
34124;BME280;13153;52.316;21.166;2023-06-10T07:37:35;100556.81;;;38.29;20.54
34124;BME280;13153;52.316;21.166;2023-06-10T07:40:01;100544.88;;;37.87;20.79
34124;BME280;13153;52.316;21.166;2023-06-10T07:42:26;100551.25;;;37.65;21.33
34124;BME280;13153;52.316;21.166;2023-06-10T07:44:52;100554.41;;;37.60;21.30
34124;BME280;13153;52.316;21.166;2023-06-10T07:47:18;100554.09;;;37.43;21.48
34124;BME280;13153;52.316;21.166;2023-06-10T07:49:44;100559.56;;;37.09;21.46
34124;BME280;13153;52.316;21.166;2023-06-10T07:52:09;100557.88;;;36.40;22.75
34124;BME280;13153;52.316;21.166;2023-06-10T07:54:35;100566.56;;;34.87;24.15
34124;BME280;13153;52.316;21.166;2023-06-10T07:57:01;100559.63;;;33.77;25.77
34124;BME280;13153;52.316;21.166;2023-06-10T07:59:27;100560.63;;;33.21;25.98
34124;BME280;13153;52.316;21.166;2023-06-10T08:01:53;100562.78;;;33.15;26.69
34124;BME280;13153;52.316;21.166;2023-06-10T08:04:19;100558.69;;;33.37;26.37
34124;BME280;13153;52.316;21.166;2023-06-10T08:06:44;100561.03;;;33.14;27.45
34124;BME280;13153;52.316;21.166;2023-06-10T08:09:10;100558.69;;;32.94;27.23
34124;BME280;13153;52.316;21.166;2023-06-10T08:11:36;100561.03;;;33.00;27.35
34124;BME280;13153;52.316;21.166;2023-06-10T08:14:02;100562.09;;;32.98;27.61
34124;BME280;13153;52.316;21.166;2023-06-10T08:16:27;100559.66;;;32.93;26.93
34124;BME280;13153;52.316;21.166;2023-06-10T08:18:53;100549.50;;;32.53;27.63
34124;BME280;13153;52.316;21.166;2023-06-10T08:21:19;100568.03;;;32.02;27.95
34124;BME280;13153;52.316;21.166;2023-06-10T08:23:45;100559.28;;;31.34;28.45
34124;BME280;13153;52.316;21.166;2023-06-10T08:26:11;100560.19;;;31.01;29.70
34124;BME280;13153;52.316;21.166;2023-06-10T08:28:37;100558.09;;;30.73;30.53
34124;BME280;13153;52.316;21.166;2023-06-10T08:31:02;100556.34;;;30.72;30.44
34124;BME280;13153;52.316;21.166;2023-06-10T08:33:28;100564.88;;;30.82;30.52
34124;BME280;13153;52.316;21.166;2023-06-10T08:35:54;100564.16;;;30.78;30.47
34124;BME280;13153;52.316;21.166;2023-06-10T08:38:19;100561.03;;;30.36;30.51
34124;BME280;13153;52.316;21.166;2023-06-10T08:40:45;100558.53;;;29.97;30.33
34124;BME280;13153;52.316;21.166;2023-06-10T08:46:00;100567.00;;;29.72;31.04
34124;BME280;13153;52.316;21.166;2023-06-10T08:48:29;100562.72;;;29.30;32.08
34124;BME280;13153;52.316;21.166;2023-06-10T08:50:57;100570.19;;;29.25;31.69
34124;BME280;13153;52.316;21.166;2023-06-10T08:53:25;100564.16;;;29.56;32.75
34124;BME280;13153;52.316;21.166;2023-06-10T08:55:52;100569.34;;;29.79;31.98
34124;BME280;13153;52.316;21.166;2023-06-10T08:58:20;100568.72;;;29.92;30.59
34124;BME280;13153;52.316;21.166;2023-06-10T09:00:46;100567.53;;;29.97;30.76
34124;BME280;13153;52.316;21.166;2023-06-10T09:03:13;100571.69;;;30.04;30.59
34124;BME280;13153;52.316;21.166;2023-06-10T09:05:39;100584.28;;;29.88;30.33
34124;BME280;13153;52.316;21.166;2023-06-10T09:08:08;100575.34;;;29.86;29.99
34124;BME280;13153;52.316;21.166;2023-06-10T09:10:35;100581.09;;;29.61;31.44
34124;BME280;13153;52.316;21.166;2023-06-10T09:13:01;100580.16;;;29.24;32.27
34124;BME280;13153;52.316;21.166;2023-06-10T09:15:27;100571.34;;;29.01;31.42
34124;BME280;13153;52.316;21.166;2023-06-10T09:17:53;100576.78;;;29.19;32.03
34124;BME280;13153;52.316;21.166;2023-06-10T09:20:19;100569.97;;;29.30;31.71
34124;BME280;13153;52.316;21.166;2023-06-10T09:22:44;100574.28;;;29.15;30.96
34124;BME280;13153;52.316;21.166;2023-06-10T09:25:12;100573.53;;;29.11;32.43
34124;BME280;13153;52.316;21.166;2023-06-10T09:27:52;100573.91;;;29.04;31.23
34124;BME280;13153;52.316;21.166;2023-06-10T09:30:27;100569.56;;;29.00;30.02
34124;BME280;13153;52.316;21.166;2023-06-10T09:32:59;100575.41;;;28.90;30.15
34124;BME280;13153;52.316;21.166;2023-06-10T09:35:28;100572.59;;;28.73;30.83
34124;BME280;13153;52.316;21.166;2023-06-10T09:37:56;100580.03;;;28.88;30.44
34124;BME280;13153;52.316;21.166;2023-06-10T09:40:23;100580.34;;;29.01;29.41
34124;BME280;13153;52.316;21.166;2023-06-10T09:42:58;100585.00;;;28.58;29.92
34124;BME280;13153;52.316;21.166;2023-06-10T09:45:31;100585.50;;;28.27;30.99
34124;BME280;13153;52.316;21.166;2023-06-10T09:47:57;100578.75;;;28.36;31.54
34124;BME280;13153;52.316;21.166;2023-06-10T09:50:23;100582.63;;;28.51;31.20
34124;BME280;13153;52.316;21.166;2023-06-10T09:52:51;100581.34;;;28.59;30.32
34124;BME280;13153;52.316;21.166;2023-06-10T09:55:18;100578.28;;;28.67;30.14
34124;BME280;13153;52.316;21.166;2023-06-10T09:57:44;100572.88;;;28.87;30.10
34124;BME280;13153;52.316;21.166;2023-06-10T10:00:14;100578.69;;;28.78;29.88
34124;BME280;13153;52.316;21.166;2023-06-10T10:02:52;100572.06;;;28.65;29.20
34124;BME280;13153;52.316;21.166;2023-06-10T10:05:21;100578.44;;;28.64;29.66
34124;BME280;13153;52.316;21.166;2023-06-10T10:07:47;100569.63;;;28.59;27.47
34124;BME280;13153;52.316;21.166;2023-06-10T10:10:16;100562.44;;;28.17;26.63
34124;BME280;13153;52.316;21.166;2023-06-10T10:12:42;100566.34;;;28.10;28.43
34124;BME280;13153;52.316;21.166;2023-06-10T10:15:11;100562.59;;;28.35;29.43
34124;BME280;13153;52.316;21.166;2023-06-10T10:17:59;100555.69;;;28.48;27.82
34124;BME280;13153;52.316;21.166;2023-06-10T10:20:31;100566.53;;;28.27;27.23
34124;BME280;13153;52.316;21.166;2023-06-10T10:23:03;100564.03;;;28.01;28.31
34124;BME280;13153;52.316;21.166;2023-06-10T10:25:38;100561.28;;;27.81;28.58
34124;BME280;13153;52.316;21.166;2023-06-10T10:28:12;100547.94;;;27.98;28.82
34124;BME280;13153;52.316;21.166;2023-06-10T10:30:41;100550.00;;;27.91;28.90
34124;BME280;13153;52.316;21.166;2023-06-10T10:33:17;100558.94;;;27.93;29.09
34124;BME280;13153;52.316;21.166;2023-06-10T10:35:45;100551.53;;;27.77;29.03
34124;BME280;13153;52.316;21.166;2023-06-10T10:38:11;100547.63;;;27.84;30.14
34124;BME280;13153;52.316;21.166;2023-06-10T10:40:39;100544.78;;;27.87;29.88
34124;BME280;13153;52.316;21.166;2023-06-10T10:43:06;100550.53;;;27.79;30.00
34124;BME280;13153;52.316;21.166;2023-06-10T10:45:34;100545.94;;;27.81;29.83
34124;BME280;13153;52.316;21.166;2023-06-10T10:48:08;100549.25;;;27.88;31.32
34124;BME280;13153;52.316;21.166;2023-06-10T10:50:38;100541.72;;;27.96;30.97
34124;BME280;13153;52.316;21.166;2023-06-10T10:53:05;100551.09;;;27.87;29.25
34124;BME280;13153;52.316;21.166;2023-06-10T10:55:32;100546.94;;;27.79;30.42
34124;BME280;13153;52.316;21.166;2023-06-10T10:58:06;100543.28;;;28.02;30.82
34124;BME280;13153;52.316;21.166;2023-06-10T11:00:43;100549.03;;;28.14;30.46
34124;BME280;13153;52.316;21.166;2023-06-10T11:03:15;100534.88;;;28.30;31.21
34124;BME280;13153;52.316;21.166;2023-06-10T11:05:48;100534.31;;;28.21;28.38
34124;BME280;13153;52.316;21.166;2023-06-10T11:16:40;100532.50;;;28.00;28.90
34124;BME280;13153;52.316;21.166;2023-06-10T11:19:07;100534.16;;;28.04;28.92
34124;BME280;13153;52.316;21.166;2023-06-10T11:21:59;100536.69;;;27.87;29.90
34124;BME280;13153;52.316;21.166;2023-06-10T11:24:25;100525.81;;;27.88;29.88
34124;BME280;13153;52.316;21.166;2023-06-10T11:26:51;100526.56;;;27.92;30.10
34124;BME280;13153;52.316;21.166;2023-06-10T11:29:17;100534.53;;;27.95;30.75
34124;BME280;13153;52.316;21.166;2023-06-10T11:31:49;100535.03;;;28.05;32.09
34124;BME280;13153;52.316;21.166;2023-06-10T11:34:22;100536.75;;;27.85;31.99
34124;BME280;13153;52.316;21.166;2023-06-10T11:36:49;100530.38;;;28.08;33.46
34124;BME280;13153;52.316;21.166;2023-06-10T11:39:15;100529.81;;;28.20;33.06
34124;BME280;13153;52.316;21.166;2023-06-10T11:41:41;100532.59;;;28.19;32.64
34124;BME280;13153;52.316;21.166;2023-06-10T11:44:12;100530.09;;;28.14;33.09
34124;BME280;13153;52.316;21.166;2023-06-10T11:46:39;100525.25;;;28.22;33.57
34124;BME280;13153;52.316;21.166;2023-06-10T11:49:06;100523.00;;;28.32;34.11
34124;BME280;13153;52.316;21.166;2023-06-10T11:51:36;100533.41;;;28.41;34.14
34124;BME280;13153;52.316;21.166;2023-06-10T11:54:03;100529.97;;;28.38;32.89
34124;BME280;13153;52.316;21.166;2023-06-10T11:56:31;100528.25;;;28.55;32.59
34124;BME280;13153;52.316;21.166;2023-06-10T11:58:58;100526.66;;;28.51;33.43
34124;BME280;13153;52.316;21.166;2023-06-10T12:01:27;100525.63;;;28.54;33.98
34124;BME280;13153;52.316;21.166;2023-06-10T12:04:14;100524.53;;;28.58;34.40
34124;BME280;13153;52.316;21.166;2023-06-10T12:06:43;100526.66;;;28.51;33.78
34124;BME280;13153;52.316;21.166;2023-06-10T12:09:19;100520.28;;;28.32;32.97
34124;BME280;13153;52.316;21.166;2023-06-10T12:11:51;100523.59;;;28.18;32.52
34124;BME280;13153;52.316;21.166;2023-06-10T12:14:57;100516.31;;;28.20;32.92
34124;BME280;13153;52.316;21.166;2023-06-10T12:17:36;100513.72;;;28.17;33.04
34124;BME280;13153;52.316;21.166;2023-06-10T12:20:06;100522.44;;;28.25;34.70
34124;BME280;13153;52.316;21.166;2023-06-10T12:22:40;100521.19;;;28.33;33.61
34124;BME280;13153;52.316;21.166;2023-06-10T12:25:08;100518.19;;;28.39;34.53
34124;BME280;13153;52.316;21.166;2023-06-10T12:27:35;100526.72;;;28.50;35.04
34124;BME280;13153;52.316;21.166;2023-06-10T12:30:04;100520.63;;;28.45;33.78
34124;BME280;13153;52.316;21.166;2023-06-10T12:32:45;100514.81;;;28.34;33.63
34124;BME280;13153;52.316;21.166;2023-06-10T12:35:16;100525.09;;;28.46;34.98
34124;BME280;13153;52.316;21.166;2023-06-10T12:37:55;100520.34;;;28.51;34.36
34124;BME280;13153;52.316;21.166;2023-06-10T12:40:34;100517.22;;;28.60;33.45
34124;BME280;13153;52.316;21.166;2023-06-10T12:43:02;100508.69;;;28.69;33.75
34124;BME280;13153;52.316;21.166;2023-06-10T12:45:29;100514.56;;;28.79;34.92
34124;BME280;13153;52.316;21.166;2023-06-10T12:48:25;100517.50;;;28.54;33.62
34124;BME280;13153;52.316;21.166;2023-06-10T12:50:57;100500.94;;;28.41;34.55
34124;BME280;13153;52.316;21.166;2023-06-10T12:53:24;100510.41;;;28.31;33.91
34124;BME280;13153;52.316;21.166;2023-06-10T12:55:52;100505.09;;;28.30;33.06